Terminal Aerodrome Forecast
Issued by NWS

Home | Current Version | Previous Version | Text Only | Print | Product List | Glossary On
Versions: 1 2 3 4 5 6 7 8 9 10 11 12 13 14 15 16 17 18 19 20
000
FTUS43 KFGF 061120
TAFTVF
TAF
KTVF 061120Z 0612/0712 35011KT P6SM BKN050
     FM061500 34015KT P6SM BKN120
     FM070100 VRB02KT 3SM HZ SKC
      AMD LTD TO CLD VIS AND WIND=

USA.gov is the U.S. government's official web portal to all federal, state and local government web resources and services.